Time;durP1;ratioP1;P1;durP2;ratioP2;P2;SDS_P1;SDS_P2;PMS_P1;PMS_P2;Temp;Humidity;BMP_temperature;BMP_pressure;BME280_temperature;BME280_humidity;BME280_pressure;Samples;Min_cycle;Max_cycle;Signal;HPM_P1;HPM_P2
2021/09/28 00:00:43;;;;;;;1.53;1.43;;;15.90;99.90;;;;;;5025782;28;20228;-74
2021/09/28 00:03:08;;;;;;;1.10;1.10;;;15.40;99.90;;;;;;5021896;28;20441;-74
2021/09/28 00:05:34;;;;;;;0.90;0.90;;;15.30;99.90;;;;;;5029962;28;20227;-75
2021/09/28 00:08:00;;;;;;;1.13;1.13;;;15.20;99.90;;;;;;5025188;28;20187;-75
2021/09/28 00:10:25;;;;;;;1.47;1.27;;;15.30;99.90;;;;;;5022950;28;20873;-74
2021/09/28 00:12:51;;;;;;;1.67;1.17;;;14.90;99.90;;;;;;5020220;28;20402;-74
2021/09/28 00:15:18;;;;;;;1.30;1.20;;;15.00;99.90;;;;;;5020627;28;20545;-74
2021/09/28 00:17:44;;;;;;;1.07;1.07;;;14.80;99.90;;;;;;5025145;28;20254;-74
2021/09/28 00:20:11;;;;;;;1.20;1.13;;;14.70;99.90;;;;;;5023751;28;20426;-74
2021/09/28 00:22:37;;;;;;;1.00;1.00;;;14.80;99.90;;;;;;5022066;28;20501;-74
2021/09/28 00:25:05;;;;;;;1.10;1.10;;;14.80;99.90;;;;;;5027479;28;21040;-74
2021/09/28 00:27:30;;;;;;;1.30;1.20;;;14.80;99.90;;;;;;5024878;28;20487;-74
2021/09/28 00:29:56;;;;;;;1.00;1.00;;;14.30;99.90;;;;;;5025621;28;20990;-74
2021/09/28 00:32:22;;;;;;;1.37;1.00;;;14.60;99.90;;;;;;5020593;28;20183;-73
2021/09/28 00:34:47;;;;;;;1.00;1.00;;;14.70;99.90;;;;;;5024942;28;20241;-74
2021/09/28 00:37:13;;;;;;;1.00;1.00;;;14.30;99.90;;;;;;5023201;28;20604;-74
2021/09/28 00:39:39;;;;;;;1.20;1.20;;;14.40;99.90;;;;;;5032067;28;20596;-74
2021/09/28 00:42:05;;;;;;;1.17;1.00;;;14.40;99.90;;;;;;5021129;28;20433;-74
2021/09/28 00:44:40;;;;;;;1.00;1.00;;;14.40;99.90;;;;;;5022293;28;20210;-73
2021/09/28 00:47:08;;;;;;;1.50;1.40;;;14.50;99.90;;;;;;5023404;28;20459;-73
2021/09/28 00:49:37;;;;;;;1.40;1.30;;;14.20;99.90;;;;;;5023162;28;20434;-73
2021/09/28 00:52:03;;;;;;;1.20;1.10;;;14.40;99.90;;;;;;5042141;28;20841;-73
2021/09/28 00:54:31;;;;;;;1.40;1.30;;;14.30;99.90;;;;;;5024942;28;20522;-74
2021/09/28 00:56:57;;;;;;;1.60;1.20;;;14.00;99.90;;;;;;5030719;28;20465;-73
2021/09/28 00:59:23;;;;;;;1.47;1.17;;;14.00;99.90;;;;;;5034954;28;20884;-74
2021/09/28 01:01:48;;;;;;;1.83;1.30;;;13.90;99.90;;;;;;5022676;28;20461;-74
2021/09/28 01:04:16;;;;;;;1.20;1.17;;;13.60;99.90;;;;;;5024433;28;20328;-75
2021/09/28 01:06:43;;;;;;;1.07;1.07;;;13.70;99.90;;;;;;5028735;28;20227;-75
2021/09/28 01:09:13;;;;;;;1.43;1.33;;;14.00;99.90;;;;;;5024852;28;20434;-75
2021/09/28 01:11:39;;;;;;;1.20;1.20;;;13.90;99.90;;;;;;5023250;28;20984;-75
2021/09/28 01:14:06;;;;;;;3.87;3.57;;;13.80;99.90;;;;;;5022503;28;20462;-76
2021/09/28 01:16:32;;;;;;;2.37;2.27;;;13.60;99.90;;;;;;5026579;28;20439;-76
2021/09/28 01:18:57;;;;;;;1.57;1.47;;;13.40;99.90;;;;;;5028538;28;20449;-76
2021/09/28 01:21:23;;;;;;;1.20;1.20;;;13.70;99.90;;;;;;5030081;28;20525;-76
2021/09/28 01:23:48;;;;;;;1.20;1.20;;;13.70;99.90;;;;;;5025049;28;20649;-76
2021/09/28 01:26:23;;;;;;;1.30;1.20;;;13.70;99.90;;;;;;5031024;28;20273;-75
2021/09/28 01:28:49;;;;;;;1.60;1.50;;;13.50;99.90;;;;;;5027775;28;20344;-76
2021/09/28 01:31:15;;;;;;;1.90;1.40;;;13.30;99.90;;;;;;5026272;28;20803;-76
2021/09/28 01:33:42;;;;;;;2.00;1.37;;;13.50;99.90;;;;;;5022828;28;20461;-75
2021/09/28 01:36:07;;;;;;;1.77;1.47;;;13.50;99.90;;;;;;5022575;28;20428;-76
2021/09/28 01:38:33;;;;;;;3.30;1.47;;;13.20;99.90;;;;;;5025901;28;20425;-75
2021/09/28 01:40:59;;;;;;;1.77;1.50;;;13.00;99.90;;;;;;5024441;28;20191;-75
2021/09/28 01:43:24;;;;;;;2.30;1.60;;;13.30;99.90;;;;;;5022529;28;20741;-75
2021/09/28 01:45:57;;;;;;;1.77;1.67;;;13.00;99.90;;;;;;5025487;28;20215;-75
2021/09/28 01:48:34;;;;;;;1.67;1.57;;;13.00;99.90;;;;;;5029713;28;20234;-76
2021/09/28 01:51:00;;;;;;;1.50;1.40;;;13.00;99.90;;;;;;5023431;28;20433;-76
2021/09/28 01:53:26;;;;;;;1.97;1.83;;;12.80;99.90;;;;;;5023091;28;20808;-75
2021/09/28 01:55:51;;;;;;;2.90;1.77;;;13.00;99.90;;;;;;5021443;28;20190;-76
2021/09/28 01:58:17;;;;;;;2.27;2.10;;;12.60;99.90;;;;;;5030797;28;20210;-76
2021/09/28 02:00:43;;;;;;;2.40;1.70;;;12.80;99.90;;;;;;5026957;28;20555;-76
2021/09/28 02:03:09;;;;;;;1.73;1.63;;;12.60;99.90;;;;;;5023958;28;20187;-76
2021/09/28 02:05:35;;;;;;;2.20;1.90;;;12.70;99.90;;;;;;5029516;28;20476;-76
2021/09/28 02:08:01;;;;;;;1.77;1.67;;;12.60;99.90;;;;;;5026776;28;20662;-76
2021/09/28 02:10:26;;;;;;;2.00;1.90;;;12.80;99.90;;;;;;5032762;28;20187;-76
2021/09/28 02:12:52;;;;;;;1.80;1.70;;;12.70;99.90;;;;;;5032254;28;20509;-76
2021/09/28 02:15:17;;;;;;;2.50;1.87;;;13.00;99.90;;;;;;5027760;28;20668;-76
2021/09/28 02:17:43;;;;;;;1.70;1.60;;;12.90;99.90;;;;;;5026956;28;20190;-76
2021/09/28 02:20:10;;;;;;;1.70;1.60;;;12.70;99.90;;;;;;5025177;28;20531;-76
2021/09/28 02:22:36;;;;;;;2.20;1.90;;;12.70;99.90;;;;;;5025953;28;20422;-75
2021/09/28 02:25:01;;;;;;;2.10;1.63;;;12.80;99.90;;;;;;5022862;28;20853;-75
2021/09/28 02:27:27;;;;;;;3.13;1.50;;;12.70;99.90;;;;;;5021368;28;20195;-76
2021/09/28 02:29:52;;;;;;;3.10;1.60;;;12.80;99.90;;;;;;5027362;28;20685;-76
2021/09/28 02:32:18;;;;;;;2.83;1.67;;;12.70;99.90;;;;;;5025363;28;20218;-76
2021/09/28 02:34:43;;;;;;;2.47;1.60;;;12.60;99.90;;;;;;5022950;28;20220;-76
2021/09/28 02:37:11;;;;;;;4.70;2.47;;;12.70;99.90;;;;;;5024544;28;20179;-75
2021/09/28 02:39:39;;;;;;;6.40;2.43;;;12.70;99.90;;;;;;5026758;28;20615;-76
2021/09/28 02:42:06;;;;;;;2.23;2.03;;;12.70;99.90;;;;;;5038759;28;20435;-76
2021/09/28 02:44:32;;;;;;;1.60;1.50;;;12.50;99.90;;;;;;5028389;28;20457;-75
2021/09/28 02:46:57;;;;;;;1.70;1.60;;;12.70;99.90;;;;;;5028695;28;20557;-76
2021/09/28 02:49:23;;;;;;;2.40;1.90;;;12.60;99.90;;;;;;5023868;28;20274;-75
2021/09/28 02:51:48;;;;;;;2.37;1.80;;;12.70;99.90;;;;;;5027451;28;20223;-76
2021/09/28 02:54:14;;;;;;;2.83;1.70;;;12.60;99.90;;;;;;5020625;28;20207;-75
2021/09/28 02:56:39;;;;;;;5.90;2.10;;;12.70;99.90;;;;;;5031539;28;20181;-76
2021/09/28 02:59:05;;;;;;;2.00;1.87;;;12.60;99.90;;;;;;5026313;28;20190;-75
2021/09/28 03:01:30;;;;;;;2.80;2.20;;;12.60;99.90;;;;;;5020232;28;20183;-76
2021/09/28 03:03:56;;;;;;;1.70;1.50;;;12.80;99.90;;;;;;5022216;28;20190;-76
2021/09/28 03:06:21;;;;;;;2.10;1.87;;;12.70;99.90;;;;;;5024814;28;20254;-75
2021/09/28 03:08:47;;;;;;;2.20;1.63;;;12.50;99.90;;;;;;5026462;28;20626;-75
2021/09/28 03:11:12;;;;;;;2.17;1.87;;;12.60;99.90;;;;;;5022359;28;20185;-76
2021/09/28 03:13:38;;;;;;;2.50;1.93;;;12.40;99.90;;;;;;5021889;28;20246;-76
2021/09/28 03:16:04;;;;;;;1.90;1.80;;;12.60;99.90;;;;;;5026750;28;20179;-75
2021/09/28 03:18:30;;;;;;;2.07;1.87;;;12.60;99.90;;;;;;5026112;28;20256;-75
2021/09/28 03:20:55;;;;;;;2.20;2.10;;;12.50;99.90;;;;;;5022159;28;21071;-76
2021/09/28 03:23:21;;;;;;;2.27;2.07;;;12.50;99.90;;;;;;5026366;28;20182;-75
2021/09/28 03:25:46;;;;;;;1.70;1.60;;;12.10;99.90;;;;;;5028492;28;20241;-75
2021/09/28 03:28:12;;;;;;;3.23;1.97;;;12.30;99.90;;;;;;5031193;28;20609;-75
2021/09/28 03:30:38;;;;;;;3.83;1.60;;;12.20;99.90;;;;;;5023645;28;20193;-76
2021/09/28 03:33:05;;;;;;;3.20;1.90;;;12.30;99.90;;;;;;5022793;28;20242;-75
2021/09/28 03:35:31;;;;;;;2.67;1.90;;;12.20;99.90;;;;;;5021481;28;20824;-75
2021/09/28 03:37:56;;;;;;;2.87;2.17;;;12.00;99.90;;;;;;5021896;28;20196;-76
2021/09/28 03:40:22;;;;;;;2.47;2.27;;;12.20;99.90;;;;;;5023075;28;21401;-76
2021/09/28 03:42:48;;;;;;;2.00;1.90;;;12.00;99.90;;;;;;5025962;28;20192;-76
2021/09/28 03:45:14;;;;;;;2.10;1.90;;;11.70;99.90;;;;;;5021396;28;20217;-75
2021/09/28 03:47:39;;;;;;;1.87;1.77;;;11.60;99.90;;;;;;5026231;28;20188;-75
2021/09/28 03:50:06;;;;;;;2.60;2.10;;;11.90;99.90;;;;;;5023836;28;20666;-75
2021/09/28 03:52:33;;;;;;;2.15;2.00;;;11.60;99.90;;;;;;5019674;28;20714;-75
2021/09/28 03:54:58;;;;;;;2.00;1.90;;;11.30;99.90;;;;;;5022314;28;20233;-75
2021/09/28 03:57:24;;;;;;;2.00;1.90;;;11.30;99.90;;;;;;5021510;28;20177;-75
2021/09/28 03:59:49;;;;;;;4.60;3.40;;;11.50;99.90;;;;;;5026031;28;20608;-75
2021/09/28 04:02:15;;;;;;;2.10;1.80;;;11.40;99.90;;;;;;5023051;28;20183;-76
2021/09/28 04:04:41;;;;;;;2.73;2.20;;;11.20;99.90;;;;;;5019334;28;20206;-75
2021/09/28 04:07:06;;;;;;;2.30;1.90;;;11.10;99.90;;;;;;5026731;28;20223;-76
2021/09/28 04:09:32;;;;;;;2.63;2.20;;;11.20;99.90;;;;;;5024898;28;20487;-75
2021/09/28 04:11:57;;;;;;;2.70;1.90;;;11.20;99.90;;;;;;5023676;28;20188;-75
2021/09/28 04:14:23;;;;;;;2.47;1.87;;;11.40;99.90;;;;;;5019314;28;20222;-75
2021/09/28 04:16:49;;;;;;;2.03;1.93;;;11.20;99.90;;;;;;5022737;28;20283;-75
2021/09/28 04:19:14;;;;;;;2.10;2.00;;;11.10;99.90;;;;;;5022931;28;20187;-75
2021/09/28 04:21:42;;;;;;;2.70;2.00;;;11.30;99.90;;;;;;5031970;28;20490;-75
2021/09/28 04:24:07;;;;;;;2.33;2.22;;;11.20;99.90;;;;;;5039585;28;20193;-75
2021/09/28 04:26:34;;;;;;;2.60;2.27;;;11.20;99.90;;;;;;5032568;28;20580;-75
2021/09/28 04:29:00;;;;;;;3.17;2.85;;;11.30;99.90;;;;;;5025741;28;20907;-75
2021/09/28 04:31:25;;;;;;;2.45;2.25;;;11.00;99.90;;;;;;5031014;28;20197;-75
2021/09/28 04:33:51;;;;;;;2.53;2.30;;;11.20;99.90;;;;;;5033769;28;20215;-75
2021/09/28 04:36:16;;;;;;;2.93;2.70;;;11.10;99.90;;;;;;5032746;28;20178;-75
2021/09/28 04:38:42;;;;;;;2.70;2.50;;;11.10;99.90;;;;;;5032413;28;20183;-75
2021/09/28 04:41:07;;;;;;;3.10;2.73;;;10.90;99.90;;;;;;5026037;28;20218;-76
2021/09/28 04:43:33;;;;;;;2.37;2.17;;;10.70;99.90;;;;;;5032796;28;20207;-76
2021/09/28 04:45:58;;;;;;;2.60;2.40;;;10.90;99.90;;;;;;5032924;28;20663;-76
2021/09/28 04:48:24;;;;;;;2.20;2.10;;;10.70;99.90;;;;;;5029686;28;20192;-76
2021/09/28 04:50:52;;;;;;;3.17;2.47;;;11.00;99.90;;;;;;5024669;28;20261;-76
2021/09/28 04:53:19;;;;;;;2.50;2.30;;;10.60;99.90;;;;;;5030246;28;20214;-77
2021/09/28 04:55:45;;;;;;;2.72;2.53;;;10.70;99.90;;;;;;5035445;28;20194;-76
2021/09/28 04:58:10;;;;;;;4.80;3.10;;;10.80;99.90;;;;;;5026835;28;20405;-76
2021/09/28 05:00:36;;;;;;;2.93;2.53;;;10.50;99.90;;;;;;5030876;28;20250;-76
2021/09/28 05:03:01;;;;;;;2.33;2.17;;;10.30;99.90;;;;;;5026299;28;20203;-76
2021/09/28 05:05:27;;;;;;;2.77;2.13;;;10.30;99.90;;;;;;5025488;28;20850;-76
2021/09/28 05:07:52;;;;;;;2.53;2.30;;;10.30;99.90;;;;;;5029989;28;20289;-86
2021/09/28 05:10:18;;;;;;;2.67;2.27;;;10.30;99.90;;;;;;5032176;28;20205;-79
2021/09/28 05:12:44;;;;;;;2.40;2.20;;;10.20;99.90;;;;;;5035085;28;20183;-87
2021/09/28 05:15:09;;;;;;;2.53;2.40;;;10.40;99.90;;;;;;5032967;28;20289;-87
2021/09/28 05:17:35;;;;;;;2.30;2.10;;;10.50;99.90;;;;;;5025079;28;20207;-75
2021/09/28 05:20:03;;;;;;;2.53;2.33;;;10.10;99.90;;;;;;5037451;28;20422;-77
2021/09/28 05:22:28;;;;;;;2.67;2.10;;;10.00;99.90;;;;;;5026775;28;20180;-76
2021/09/28 05:24:54;;;;;;;2.60;2.40;;;10.00;99.90;;;;;;5030249;28;20277;-76
2021/09/28 05:27:19;;;;;;;2.17;2.07;;;9.80;99.90;;;;;;5035331;28;20187;-76
2021/09/28 05:29:45;;;;;;;4.10;2.27;;;10.40;99.90;;;;;;5026176;28;20183;-77
2021/09/28 05:32:10;;;;;;;2.37;2.17;;;9.80;99.90;;;;;;5032722;28;20521;-76
2021/09/28 05:34:36;;;;;;;2.90;2.70;;;10.10;99.90;;;;;;5031843;28;20216;-76
2021/09/28 05:37:02;;;;;;;2.33;2.13;;;9.80;99.90;;;;;;5031850;28;20187;-77
2021/09/28 05:39:28;;;;;;;2.15;1.95;;;10.20;99.90;;;;;;5027147;28;20219;-77
2021/09/28 05:41:54;;;;;;;2.70;2.50;;;10.10;99.90;;;;;;5030809;28;20232;-77
2021/09/28 05:44:19;;;;;;;2.73;2.03;;;9.80;99.90;;;;;;5029936;28;20270;-76
2021/09/28 05:46:45;;;;;;;3.90;2.80;;;9.90;99.90;;;;;;5027498;28;20199;-76
2021/09/28 05:49:10;;;;;;;3.40;3.10;;;9.70;99.90;;;;;;5021807;28;20704;-76
2021/09/28 05:51:37;;;;;;;4.10;3.70;;;10.00;99.90;;;;;;5027952;28;20194;-77
2021/09/28 05:54:05;;;;;;;9.27;8.55;;;9.70;99.90;;;;;;5027067;28;20199;-76
2021/09/28 05:56:31;;;;;;;11.40;10.52;;;10.00;99.90;;;;;;5023648;28;20195;-77
2021/09/28 05:58:56;;;;;;;6.13;5.73;;;10.10;99.90;;;;;;5024601;28;20556;-76
2021/09/28 06:01:22;;;;;;;4.40;4.10;;;9.90;99.90;;;;;;5026669;28;20653;-77
2021/09/28 06:03:47;;;;;;;3.87;3.57;;;10.20;99.90;;;;;;5026922;28;20238;-77
2021/09/28 06:06:13;;;;;;;3.47;3.27;;;9.80;99.90;;;;;;5024928;28;20223;-76
2021/09/28 06:08:39;;;;;;;3.90;3.70;;;10.10;99.90;;;;;;5030962;28;20582;-76
2021/09/28 06:11:04;;;;;;;6.20;3.60;;;9.90;99.90;;;;;;5023870;28;20180;-76
2021/09/28 06:13:30;;;;;;;4.23;3.93;;;10.40;99.90;;;;;;5030254;28;20240;-77
2021/09/28 06:15:56;;;;;;;8.10;7.30;;;10.10;99.90;;;;;;5035750;28;20218;-77
2021/09/28 06:18:22;;;;;;;7.47;6.10;;;10.30;99.90;;;;;;5025486;28;20184;-77
2021/09/28 06:20:48;;;;;;;5.25;4.85;;;10.40;99.90;;;;;;5022879;28;20191;-77
2021/09/28 06:23:14;;;;;;;5.37;4.87;;;10.50;99.90;;;;;;5025074;28;20744;-76
2021/09/28 06:25:40;;;;;;;6.83;5.07;;;10.60;99.90;;;;;;5025567;28;20433;-76
2021/09/28 06:28:05;;;;;;;5.70;5.20;;;11.10;99.90;;;;;;5033163;28;20596;-77
2021/09/28 06:30:31;;;;;;;7.00;5.27;;;10.90;99.90;;;;;;5027045;28;20185;-77
2021/09/28 06:32:57;;;;;;;4.67;4.27;;;11.20;99.90;;;;;;5024415;28;20274;-77
2021/09/28 06:35:24;;;;;;;5.40;4.40;;;11.20;99.90;;;;;;5021348;28;20180;-77
2021/09/28 06:37:50;;;;;;;4.28;3.88;;;11.50;99.90;;;;;;5021106;28;20201;-77
2021/09/28 06:40:15;;;;;;;4.43;4.03;;;11.60;99.90;;;;;;5026667;28;20180;-83
2021/09/28 06:42:41;;;;;;;4.57;4.10;;;11.60;99.90;;;;;;5026038;28;20200;-76
2021/09/28 06:45:06;;;;;;;5.00;4.50;;;11.50;99.90;;;;;;5022890;28;20811;-76
2021/09/28 06:47:32;;;;;;;4.47;4.03;;;11.60;99.90;;;;;;5031496;28;20186;-76
2021/09/28 06:49:57;;;;;;;4.00;3.70;;;11.90;99.90;;;;;;5036593;28;20556;-76
2021/09/28 06:52:23;;;;;;;3.30;3.10;;;12.20;99.90;;;;;;5022634;28;21554;-83
2021/09/28 06:54:49;;;;;;;4.70;4.20;;;12.00;99.90;;;;;;5021125;28;20272;-76
2021/09/28 06:57:14;;;;;;;3.77;3.20;;;12.20;99.90;;;;;;5022609;28;20433;-80
2021/09/28 06:59:40;;;;;;;5.80;5.30;;;12.40;99.90;;;;;;5037945;28;20525;-81
2021/09/28 07:02:06;;;;;;;6.63;5.83;;;12.40;99.90;;;;;;5029591;28;20257;-84
2021/09/28 07:04:32;;;;;;;7.57;5.80;;;12.70;99.90;;;;;;5026670;28;20293;-81
2021/09/28 07:06:57;;;;;;;6.33;5.83;;;12.70;99.90;;;;;;5022460;28;21039;-81
2021/09/28 07:09:23;;;;;;;19.80;15.70;;;13.00;99.90;;;;;;5022494;28;20249;-81
2021/09/28 07:11:48;;;;;;;9.90;7.87;;;12.70;99.90;;;;;;5025739;28;20182;-81
2021/09/28 07:14:14;;;;;;;5.97;5.27;;;12.60;99.90;;;;;;5023998;28;20641;-81
2021/09/28 07:16:40;;;;;;;6.10;5.10;;;12.70;99.90;;;;;;5025091;28;20593;-81
2021/09/28 07:19:06;;;;;;;7.20;6.00;;;12.90;99.90;;;;;;5022157;28;20278;-82
2021/09/28 07:21:31;;;;;;;7.83;6.00;;;13.00;99.90;;;;;;5021790;28;20524;-80
2021/09/28 07:23:57;;;;;;;7.10;5.13;;;12.90;99.90;;;;;;5025391;28;20236;-81
2021/09/28 07:26:22;;;;;;;7.10;5.00;;;13.00;99.90;;;;;;5027664;28;20187;-81
2021/09/28 07:28:48;;;;;;;6.80;5.20;;;13.10;99.90;;;;;;5025727;28;20183;-80
2021/09/28 07:31:13;;;;;;;5.13;4.63;;;13.00;99.90;;;;;;5022238;28;20563;-81
2021/09/28 07:33:39;;;;;;;5.43;4.47;;;13.20;99.90;;;;;;5021938;28;20222;-81
2021/09/28 07:36:06;;;;;;;6.97;6.10;;;13.50;99.90;;;;;;5021836;28;20495;-81
2021/09/28 07:38:32;;;;;;;6.70;5.33;;;13.60;99.90;;;;;;5034536;28;20195;-80
2021/09/28 07:40:57;;;;;;;4.97;4.43;;;13.60;99.90;;;;;;5023733;28;20457;-80
2021/09/28 07:43:23;;;;;;;5.70;5.20;;;13.70;99.90;;;;;;5019981;28;20476;-80
2021/09/28 07:45:49;;;;;;;4.80;4.40;;;13.80;99.90;;;;;;5024403;28;20207;-79
2021/09/28 07:48:14;;;;;;;4.33;3.93;;;14.20;99.90;;;;;;5024454;28;20208;-80
2021/09/28 07:50:40;;;;;;;5.33;4.00;;;14.50;99.90;;;;;;5025590;28;20550;-80
2021/09/28 07:53:07;;;;;;;4.50;3.60;;;14.70;99.90;;;;;;5019996;28;20646;-79
2021/09/28 07:55:34;;;;;;;4.40;4.00;;;15.10;99.90;;;;;;5022246;28;20713;-80
2021/09/28 07:58:00;;;;;;;5.20;4.13;;;15.10;99.90;;;;;;5026370;28;20797;-80
2021/09/28 08:00:25;;;;;;;6.00;4.33;;;15.00;99.90;;;;;;5029010;28;20433;-79
2021/09/28 08:02:51;;;;;;;5.63;3.50;;;15.50;99.90;;;;;;5029862;28;20183;-80
2021/09/28 08:05:17;;;;;;;3.83;3.23;;;15.10;99.90;;;;;;5025392;28;20744;-80
2021/09/28 08:07:42;;;;;;;4.97;3.30;;;15.60;99.90;;;;;;5024547;28;20321;-80
2021/09/28 08:10:11;;;;;;;4.30;3.37;;;15.60;99.90;;;;;;5024556;28;20654;-79
2021/09/28 08:12:37;;;;;;;4.20;3.63;;;16.00;99.90;;;;;;5046835;28;20657;-80
2021/09/28 08:15:03;;;;;;;4.47;3.37;;;15.90;99.90;;;;;;5045009;28;20430;-78
2021/09/28 08:17:29;;;;;;;4.30;3.80;;;15.90;99.90;;;;;;5027445;28;20669;-78
2021/09/28 08:19:54;;;;;;;3.83;3.40;;;16.00;99.90;;;;;;5031918;28;20441;-78
2021/09/28 08:22:20;;;;;;;5.10;4.10;;;16.30;99.90;;;;;;5030807;28;20174;-78
2021/09/28 08:24:50;;;;;;;7.27;3.80;;;16.60;99.90;;;;;;5028554;28;20722;-78
2021/09/28 08:30:04;;;;;;;3.97;3.63;;;16.80;98.60;;;;;;5035106;28;20954;-78
2021/09/28 08:32:35;;;;;;;5.83;3.60;;;17.10;99.90;;;;;;5028472;28;20505;-78
2021/09/28 08:35:02;;;;;;;3.60;2.97;;;17.20;94.50;;;;;;5029924;28;20468;-78
2021/09/28 08:37:28;;;;;;;3.70;3.30;;;17.40;92.10;;;;;;5030659;28;20429;-77
2021/09/28 08:39:55;;;;;;;3.30;3.00;;;17.50;92.60;;;;;;5029129;28;20436;-77
2021/09/28 08:42:22;;;;;;;3.40;3.20;;;17.40;89.30;;;;;;5023516;28;20438;-77
2021/09/28 08:44:47;;;;;;;3.10;2.80;;;17.70;90.20;;;;;;5023305;28;20473;-77
2021/09/28 08:47:13;;;;;;;3.70;3.23;;;17.40;90.30;;;;;;5033393;28;20487;-77
2021/09/28 08:49:40;;;;;;;4.93;3.33;;;17.70;90.60;;;;;;5028308;28;20553;-77
2021/09/28 08:52:06;;;;;;;3.10;2.90;;;17.50;84.70;;;;;;5025831;28;20198;-77
2021/09/28 08:54:32;;;;;;;3.57;3.27;;;17.20;86.60;;;;;;5028302;28;20434;-77
2021/09/28 08:56:59;;;;;;;3.70;3.40;;;17.40;85.90;;;;;;5028117;28;20491;-77
2021/09/28 08:59:48;;;;;;;4.50;4.10;;;17.50;90.20;;;;;;5025295;28;20631;-77
2021/09/28 09:02:14;;;;;;;3.70;3.40;;;18.50;90.00;;;;;;5023144;28;20433;-78
2021/09/28 09:04:40;;;;;;;3.00;2.80;;;18.80;75.70;;;;;;5027880;28;20457;-77
2021/09/28 09:07:26;;;;;;;5.53;3.23;;;18.90;74.80;;;;;;5025891;28;20185;-78
2021/09/28 09:09:52;;;;;;;3.33;3.03;;;18.90;73.30;;;;;;5023454;28;20342;-77
2021/09/28 09:12:30;;;;;;;3.83;3.40;;;18.80;71.30;;;;;;5030336;28;20472;-77
2021/09/28 09:15:19;;;;;;;2.97;2.73;;;18.60;69.00;;;;;;5024693;28;20530;-77
2021/09/28 09:17:46;;;;;;;4.33;3.37;;;18.40;66.90;;;;;;5026137;28;20460;-77
2021/09/28 09:20:32;;;;;;;3.37;3.07;;;18.30;70.50;;;;;;5026404;28;20841;-76
2021/09/28 09:23:15;;;;;;;3.57;2.97;;;18.60;72.30;;;;;;5026200;28;20937;-77
2021/09/28 09:25:41;;;;;;;2.80;2.50;;;20.30;75.50;;;;;;5022798;28;20468;-78
2021/09/28 09:28:22;;;;;;;2.67;2.47;;;21.60;65.10;;;;;;5022551;28;20451;-78
2021/09/28 09:30:48;;;;;;;4.70;2.43;;;21.90;61.30;;;;;;5022940;28;20524;-77
2021/09/28 09:33:22;;;;;;;2.80;2.60;;;21.90;60.90;;;;;;5023811;28;20471;-77
2021/09/28 09:35:56;;;;;;;4.13;3.20;;;21.50;60.40;;;;;;5022512;28;20788;-77
2021/09/28 09:38:22;;;;;;;3.50;3.17;;;21.30;60.50;;;;;;5022278;28;20433;-77
2021/09/28 09:40:49;;;;;;;6.23;3.67;;;20.80;59.90;;;;;;5022220;28;20448;-77
2021/09/28 09:43:17;;;;;;;3.90;3.10;;;20.40;59.80;;;;;;5026401;28;20321;-77
2021/09/28 09:45:43;;;;;;;3.33;3.03;;;20.60;61.90;;;;;;5027296;28;20468;-77
2021/09/28 09:48:27;;;;;;;3.03;2.83;;;21.30;60.50;;;;;;5023952;28;20429;-78
2021/09/28 09:51:01;;;;;;;3.63;3.40;;;21.80;58.90;;;;;;5022841;28;20194;-77
2021/09/28 09:53:27;;;;;;;4.00;3.70;;;22.30;56.90;;;;;;5021638;28;20421;-78
2021/09/28 09:55:52;;;;;;;3.97;3.20;;;22.50;56.30;;;;;;5023803;28;20774;-78
2021/09/28 09:58:20;;;;;;;3.77;3.47;;;24.00;55.10;;;;;;5021800;28;20188;-78
2021/09/28 10:00:46;;;;;;;4.17;3.80;;;24.80;48.60;;;;;;5022297;28;20190;-77
2021/09/28 10:03:12;;;;;;;4.30;3.97;;;24.70;48.50;;;;;;5021943;28;20437;-78
2021/09/28 10:05:37;;;;;;;3.90;3.60;;;24.90;46.60;;;;;;5026296;28;20478;-78
2021/09/28 10:08:09;;;;;;;4.50;4.10;;;25.50;46.40;;;;;;5026605;28;20637;-78
2021/09/28 10:10:35;;;;;;;4.23;3.47;;;26.50;44.30;;;;;;5024969;28;20253;-78
2021/09/28 10:13:00;;;;;;;3.80;3.30;;;27.80;42.60;;;;;;5023957;28;21012;-78
2021/09/28 10:15:26;;;;;;;3.70;2.97;;;28.60;39.80;;;;;;5022162;28;20435;-78
2021/09/28 10:17:52;;;;;;;4.30;2.80;;;29.90;37.70;;;;;;5020822;28;20217;-78
2021/09/28 10:20:23;;;;;;;4.13;3.37;;;30.80;33.20;;;;;;5023629;28;20188;-78
2021/09/28 10:22:52;;;;;;;5.00;3.43;;;30.50;32.10;;;;;;5027218;28;20184;-78
2021/09/28 10:25:21;;;;;;;3.70;3.40;;;30.20;32.30;;;;;;5025046;28;20555;-77
2021/09/28 10:27:55;;;;;;;2.77;2.53;;;30.70;33.50;;;;;;5023061;28;20480;-78
2021/09/28 10:30:35;;;;;;;3.37;2.70;;;31.90;33.10;;;;;;5021095;28;20440;-78
2021/09/28 10:33:24;;;;;;;3.00;2.70;;;32.90;30.30;;;;;;5026527;28;20420;-78
2021/09/28 10:35:54;;;;;;;4.40;3.97;;;32.50;29.10;;;;;;5027094;28;20784;-79
2021/09/28 10:38:45;;;;;;;3.00;2.73;;;30.90;31.00;;;;;;5020982;28;20433;-78
2021/09/28 10:41:28;;;;;;;3.83;3.50;;;30.30;33.20;;;;;;5022855;28;20516;-79
2021/09/28 10:44:14;;;;;;;4.93;3.67;;;30.80;30.80;;;;;;5026236;28;20480;-79
2021/09/28 10:46:40;;;;;;;3.60;3.30;;;30.90;31.00;;;;;;5026830;28;20433;-79
2021/09/28 10:49:26;;;;;;;3.07;2.87;;;31.80;31.30;;;;;;5020745;28;20587;-79
2021/09/28 10:52:20;;;;;;;3.37;3.00;;;32.10;30.00;;;;;;5020617;28;20441;-79
2021/09/28 10:55:18;;;;;;;3.37;3.07;;;33.20;29.60;;;;;;5021606;28;20943;-79
2021/09/28 10:58:00;;;;;;;4.30;3.47;;;33.80;28.40;;;;;;5021607;28;20433;-78
2021/09/28 11:00:28;;;;;;;3.00;2.80;;;34.60;27.90;;;;;;5020852;28;20437;-79
2021/09/28 11:02:55;;;;;;;3.33;3.00;;;35.60;27.70;;;;;;5020787;28;20436;-79
2021/09/28 11:05:29;;;;;;;3.07;2.80;;;36.30;27.10;;;;;;5026496;28;20471;-79
2021/09/28 11:07:56;;;;;;;3.27;2.90;;;37.10;24.90;;;;;;5026682;28;20491;-79
2021/09/28 11:10:22;;;;;;;3.53;3.23;;;37.10;25.00;;;;;;5020512;28;20833;-77
2021/09/28 11:12:47;;;;;;;6.80;3.47;;;36.80;24.20;;;;;;5022409;28;20431;-79
2021/09/28 11:15:27;;;;;;;3.40;3.20;;;36.90;25.30;;;;;;5024236;28;20253;-77
2021/09/28 11:17:52;;;;;;;3.03;2.83;;;36.50;24.40;;;;;;5025934;28;20193;-77
2021/09/28 11:20:19;;;;;;;3.20;2.90;;;35.10;24.60;;;;;;5023053;28;20453;-77
2021/09/28 11:22:56;;;;;;;3.83;3.50;;;33.40;26.00;;;;;;5028393;28;20631;-78
2021/09/28 11:25:21;;;;;;;3.70;3.50;;;32.70;27.80;;;;;;5020254;28;20524;-78
2021/09/28 11:28:09;;;;;;;3.27;2.97;;;31.70;28.60;;;;;;5022567;28;20540;-77
2021/09/28 11:30:37;;;;;;;3.13;3.03;;;31.50;30.00;;;;;;5026297;28;20639;-78
2021/09/28 11:33:05;;;;;;;3.43;3.13;;;31.90;29.20;;;;;;5025692;28;20964;-78
2021/09/28 11:35:32;;;;;;;3.43;3.00;;;33.20;28.10;;;;;;5020094;28;20434;-78
2021/09/28 11:38:00;;;;;;;4.10;3.60;;;34.10;26.80;;;;;;5022196;28;20500;-78
2021/09/28 11:40:35;;;;;;;3.27;2.87;;;34.00;26.20;;;;;;5020906;28;20798;-78
2021/09/28 11:43:24;;;;;;;2.57;2.37;;;34.70;26.30;;;;;;5021688;28;20430;-78
2021/09/28 11:46:04;;;;;;;3.07;2.83;;;34.10;25.90;;;;;;5021143;28;20453;-77
2021/09/28 11:48:54;;;;;;;2.97;2.47;;;33.80;26.40;;;;;;5022443;28;20816;-78
2021/09/28 11:51:24;;;;;;;3.03;2.43;;;34.20;26.10;;;;;;5022493;28;20433;-78
2021/09/28 11:53:52;;;;;;;2.80;2.60;;;34.50;25.80;;;;;;5026173;28;20801;-78
2021/09/28 11:56:19;;;;;;;5.50;2.50;;;34.20;25.80;;;;;;5023576;28;20452;-78
2021/09/28 11:58:47;;;;;;;2.63;2.30;;;34.00;26.30;;;;;;5021717;28;20433;-78
2021/09/28 12:01:14;;;;;;;3.50;2.40;;;34.00;26.10;;;;;;5020562;28;20581;-78
2021/09/28 12:10:21;;;;;;;2.67;2.27;;;35.40;24.60;;;;;;5019141;28;20450;-80
2021/09/28 12:12:47;;;;;;;3.03;2.63;;;36.10;24.20;;;;;;5027260;28;20458;-80
2021/09/28 12:15:21;;;;;;;2.77;2.57;;;36.30;24.70;;;;;;5028479;28;20801;-79
2021/09/28 12:17:48;;;;;;;2.23;2.13;;;35.90;23.50;;;;;;5029599;28;20190;-80
2021/09/28 12:20:21;;;;;;;2.70;2.50;;;36.20;24.30;;;;;;5027140;28;20436;-77
2021/09/28 12:22:51;;;;;;;2.93;2.27;;;35.90;23.40;;;;;;5029630;28;20527;-77
2021/09/28 12:25:22;;;;;;;2.63;2.50;;;34.90;24.70;;;;;;5031369;28;20508;-76
2021/09/28 12:27:57;;;;;;;3.00;2.80;;;34.60;25.40;;;;;;5023891;28;20948;-77
2021/09/28 12:30:25;;;;;;;2.80;2.60;;;35.00;25.60;;;;;;5019841;28;20846;-77
2021/09/28 12:32:51;;;;;;;4.37;3.93;;;34.80;25.20;;;;;;5021438;28;20548;-78
2021/09/28 12:35:33;;;;;;;3.40;2.70;;;35.40;24.80;;;;;;5026374;28;20488;-77
2021/09/28 12:38:01;;;;;;;3.47;3.10;;;36.20;24.70;;;;;;5027803;28;20443;-77
2021/09/28 12:40:38;;;;;;;2.70;2.50;;;36.70;23.90;;;;;;5033188;28;20434;-77
2021/09/28 12:43:11;;;;;;;2.93;2.70;;;36.90;22.60;;;;;;5029183;28;20459;-77
2021/09/28 12:45:52;;;;;;;3.47;2.80;;;36.70;22.90;;;;;;5030527;28;20490;-77
2021/09/28 12:48:39;;;;;;;5.13;3.23;;;36.20;23.60;;;;;;5024849;28;20810;-77
2021/09/28 12:51:10;;;;;;;3.40;3.20;;;35.50;23.50;;;;;;5033783;28;20422;-77
2021/09/28 12:53:36;;;;;;;3.80;3.00;;;34.90;24.10;;;;;;5028681;28;21144;-77
2021/09/28 12:56:05;;;;;;;3.17;3.00;;;34.40;25.30;;;;;;5026615;28;20791;-77
2021/09/28 12:58:32;;;;;;;4.00;3.20;;;33.60;26.70;;;;;;5027879;28;20430;-78
2021/09/28 13:00:59;;;;;;;2.77;2.67;;;33.20;27.00;;;;;;5028742;28;21009;-78